Página principal
METAR-TAF:

METAR-TAF

Aeroportos :

Aeroporto Port Bouet

Abidjan, Costa do Marfim

latitude: 05-15N, longitude: 003-56W, altura: 7 m

Observação actual do tempo

O boletim foi feito há 6 minutos, às 03:30 UTC
Vento 2 kt de oes-sudoeste
Temperatura 26°C
Humidade 84%
Pressão 1012 hPa
Visibilidade 10 km ou mais
Poucas nuvensa uma altura de 1500 ft

METAR: DIAP 140330Z 25002KT 9999 FEW015 26/23 Q1012 NOSIG

Hora: 03:36 (03:36 UTC)

Previsão

O boletim foi feito há 10 horas e 36 minutos, às 17:00 UTC
Previsão válida de 13 às 18 UTC a 14 às 24 UTC
Vento 8 kt de su-sudoeste
Visibilidade: 8000 m
Nuvens dispersasa uma altura de 1200 ft
Temporariamente
de 13 às 20 UTC a 13 às 24 UTC
Visibilidade: 4000 m
Nuvens fragmentadasa uma altura de 1200 ft
chuva

TAF: DIAP 131700Z 1318/1424 20008KT 8000 SCT012 TEMPO 1320/1324 4000 RA BKN012

Observações e previsões do tempo de mais de 4000 aeroportos (mensagens METAR e TAF).

As estações disponíveis são os pontos amarelos e vermelhos sobre o mapa.

Mova o rato sobre o mapa para ver o nome da estação.

Depois clique no ponto para visualizar as observações e previsões meteorológicas.

Para alterar o mapa : clique nos botões verdes com uma cruz preta para aumentar o zoom; no botão verde com uma pitada de zoom; ou nas setas verdes para mapas adjacentes.


METAR-TAF: